Terminal Aerodrome Forecast
Issued by NWS Bismarck, ND

Home | Current Version | Previous Version | Text Only | Print | Product List | Glossary On
Versions: 1 2 3 4 5 6 7 8 9 10 11 12 13 14 15 16 17 18 19
000
FTUS43 KBIS 261100 RRA
TAFBIS
TAF
KBIS 261143Z 2612/2712 09004KT 1 1/2SM -RA BR OVC020
      TEMPO 2612/2615 14007KT 3SM -RA BR SCT025 OVC035
     FM261500 15005KT P6SM VCSH SCT020 OVC035
     FM261800 16008KT P6SM SCT025 BKN060
     FM270300 12004KT P6SM SCT050 SCT180
     FM270800 14005KT P6SM BKN120=

USA.gov is the U.S. government's official web portal to all federal, state and local government web resources and services.